Flugplatz Fassberg Airport

Bericht für ETHS

vom 22.06. um 23:20 UTC

Wind 14 kt aus 300°

Sichtweite 10 km oder mehr

gering bewölkt in 2000 ft

aufgebrochene Bewölkung in 22000 ft

Temperatur 11.0°C

Taupunkt 7.0°C

Luftfeuchtigkeit 76%

Luftdruck 1022 hPa

ETHS 222320Z 30014KT 9999 FEW020 BKN220 11/07 Q1022 BLU+
Keine Prognose (TAF) verfügbar.
Impressum